createdAt,value
2023-01-19T00:01:47.074Z,0.43
2023-01-19T00:04:16.092Z,0.45
2023-01-19T00:06:45.014Z,0.50
2023-01-19T00:09:14.286Z,0.49
2023-01-19T00:11:42.935Z,0.47
2023-01-19T00:14:11.594Z,0.43
2023-01-19T00:16:40.157Z,0.37
2023-01-19T00:19:09.646Z,0.28
2023-01-19T00:21:38.229Z,0.20
2023-01-19T00:24:07.539Z,0.17
2023-01-19T00:26:40.847Z,0.19
2023-01-19T00:29:12.014Z,0.20
2023-01-19T00:31:41.207Z,0.17
2023-01-19T00:34:10.625Z,0.18
2023-01-19T00:36:39.081Z,0.21
2023-01-19T00:39:07.865Z,0.25
2023-01-19T00:41:55.306Z,0.27
2023-01-19T00:44:24.055Z,0.33
2023-01-19T00:46:52.880Z,0.37
2023-01-19T00:49:21.574Z,0.36
2023-01-19T00:51:50.296Z,0.41
2023-01-19T00:54:19.446Z,0.49
2023-01-19T00:56:48.130Z,0.51
2023-01-19T01:00:20.482Z,0.50
2023-01-19T01:02:52.194Z,0.53
2023-01-19T01:05:22.086Z,0.53
2023-01-19T01:07:51.022Z,0.56
2023-01-19T01:10:24.419Z,0.61
2023-01-19T01:12:58.019Z,0.66
2023-01-19T01:15:28.446Z,0.71
2023-01-19T01:17:57.807Z,0.76
2023-01-19T01:20:29.067Z,0.70
2023-01-19T01:22:58.965Z,0.58
2023-01-19T01:25:31.279Z,0.49
2023-01-19T01:28:00.069Z,0.42
2023-01-19T01:30:29.327Z,0.37
2023-01-19T01:32:58.973Z,0.30
2023-01-19T01:35:28.509Z,0.27
2023-01-19T01:38:02.004Z,0.22
2023-01-19T01:40:30.875Z,0.20
2023-01-19T01:43:00.414Z,0.19
2023-01-19T01:45:37.154Z,0.18
2023-01-19T01:48:27.185Z,0.18
2023-01-19T01:51:21.604Z,0.20
2023-01-19T01:53:56.420Z,0.18
2023-01-19T01:56:31.679Z,0.23
2023-01-19T01:59:29.929Z,0.22
2023-01-19T02:02:22.530Z,0.19
2023-01-19T02:05:04.555Z,0.16
2023-01-19T02:08:35.836Z,0.12
2023-01-19T02:11:25.121Z,0.12
2023-01-19T02:13:57.592Z,0.19
2023-01-19T02:16:26.571Z,0.30
2023-01-19T02:18:56.067Z,0.37
2023-01-19T02:21:31.295Z,0.42
2023-01-19T02:24:03.233Z,0.45
2023-01-19T02:26:38.707Z,0.53
2023-01-19T02:29:23.164Z,0.60
2023-01-19T02:31:56.058Z,0.65
2023-01-19T02:34:32.585Z,0.69
2023-01-19T02:37:14.852Z,0.70
2023-01-19T02:39:51.477Z,0.72
2023-01-19T02:42:32.339Z,0.69
2023-01-19T02:45:06.989Z,0.67
2023-01-19T02:47:51.465Z,0.56
2023-01-19T02:50:39.523Z,0.55
2023-01-19T02:53:27.111Z,0.62
2023-01-19T02:56:25.022Z,0.65
2023-01-19T02:59:46.083Z,0.67
2023-01-19T03:02:33.465Z,0.66
2023-01-19T03:05:35.664Z,0.60
2023-01-19T03:08:31.544Z,0.56
2023-01-19T03:11:14.172Z,0.53
2023-01-19T03:13:51.763Z,0.50
2023-01-19T03:16:40.718Z,0.41
2023-01-19T03:19:35.621Z,0.31
2023-01-19T03:22:11.471Z,0.22
2023-01-19T03:24:43.786Z,0.19
2023-01-19T03:27:32.692Z,0.21
2023-01-19T03:30:11.902Z,0.31
2023-01-19T03:32:56.087Z,0.40
2023-01-19T03:35:49.914Z,0.48
2023-01-19T03:38:32.292Z,0.46
2023-01-19T03:41:18.195Z,0.45
2023-01-19T03:44:06.800Z,0.51
2023-01-19T03:46:53.866Z,0.56
2023-01-19T03:50:28.924Z,0.61
2023-01-19T03:53:17.812Z,0.68
2023-01-19T03:55:55.441Z,0.74
2023-01-19T03:58:28.566Z,0.78
2023-01-19T04:01:04.612Z,0.77
2023-01-19T04:03:38.509Z,0.67
2023-01-19T04:06:17.459Z,0.55
2023-01-19T04:08:54.324Z,0.44
2023-01-19T04:11:28.834Z,0.50
2023-01-19T04:14:03.445Z,0.56
2023-01-19T04:16:42.283Z,0.56
2023-01-19T04:19:23.183Z,0.59
2023-01-19T04:22:28.871Z,0.64
2023-01-19T04:25:59.336Z,0.74
2023-01-19T04:29:43.303Z,0.80
2023-01-19T04:33:07.302Z,0.81
2023-01-19T04:36:46.139Z,0.79
2023-01-19T04:40:16.020Z,0.83
2023-01-19T04:43:37.087Z,0.82
2023-01-19T04:47:10.390Z,0.74
2023-01-19T05:01:24.439Z,0.87
2023-01-19T05:25:08.257Z,0.70
2023-01-19T05:32:37.657Z,0.81
2023-01-19T06:07:29.258Z,0.77
2023-01-19T06:09:59.239Z,0.79
2023-01-19T06:12:28.529Z,0.79
2023-01-19T06:14:58.208Z,0.77
2023-01-19T06:17:27.549Z,0.75
2023-01-19T06:19:57.069Z,0.65
2023-01-19T06:22:26.630Z,0.62
2023-01-19T06:24:55.952Z,0.65
2023-01-19T06:27:24.661Z,0.68
2023-01-19T06:29:53.388Z,0.70
2023-01-19T06:32:22.542Z,0.71
2023-01-19T06:34:53.933Z,0.73
2023-01-19T06:37:23.420Z,0.74
2023-01-19T06:39:53.051Z,0.75
2023-01-19T06:42:21.499Z,0.77
2023-01-19T06:44:50.404Z,0.79
2023-01-19T06:47:23.028Z,0.81
2023-01-19T06:49:52.242Z,0.81
2023-01-19T06:52:21.544Z,0.81
2023-01-19T06:54:50.432Z,0.78
2023-01-19T06:57:19.973Z,0.76
2023-01-19T06:59:49.355Z,0.76
2023-01-19T07:02:28.519Z,0.74
2023-01-19T07:05:07.822Z,0.68
2023-01-19T07:07:45.010Z,0.65
2023-01-19T07:10:16.155Z,0.62
2023-01-19T07:12:47.457Z,0.58
2023-01-19T07:15:23.171Z,0.55
2023-01-19T07:17:52.191Z,0.55
2023-01-19T07:20:24.792Z,0.57
2023-01-19T07:23:04.419Z,0.60
2023-01-19T07:25:43.207Z,0.62
2023-01-19T07:28:20.614Z,0.59
2023-01-19T07:30:56.330Z,0.46
2023-01-19T07:33:34.690Z,0.36
2023-01-19T07:36:09.945Z,0.32
2023-01-19T07:38:43.226Z,0.38
2023-01-19T07:41:17.691Z,0.38
2023-01-19T07:43:47.289Z,0.32
2023-01-19T07:46:16.829Z,0.27
2023-01-19T07:48:48.032Z,0.32
2023-01-19T07:51:20.116Z,0.38
2023-01-19T07:53:52.833Z,0.42
2023-01-19T07:56:26.469Z,0.44
2023-01-19T07:58:59.045Z,0.40
2023-01-19T08:01:33.127Z,0.42
2023-01-19T08:04:08.043Z,0.50
2023-01-19T08:06:52.668Z,0.57
2023-01-19T08:10:03.587Z,0.64
2023-01-19T08:12:44.224Z,0.74
2023-01-19T08:15:13.301Z,0.86
2023-01-19T08:17:49.499Z,0.93
2023-01-19T08:20:20.680Z,0.97
2023-01-19T08:23:05.735Z,1.00
2023-01-19T08:26:23.552Z,0.99
2023-01-19T08:29:32.323Z,1.00
2023-01-19T08:32:21.366Z,1.04
2023-01-19T08:35:51.002Z,1.08
2023-01-19T08:38:43.785Z,1.12
2023-01-19T08:41:27.639Z,1.15
2023-01-19T08:44:07.917Z,1.19
2023-01-19T08:46:46.914Z,1.24
2023-01-19T08:49:29.352Z,1.25
2023-01-19T08:52:06.013Z,1.25
2023-01-19T08:54:45.087Z,1.24
2023-01-19T08:57:26.093Z,1.26
2023-01-19T09:00:02.869Z,1.30
2023-01-19T09:02:57.535Z,1.34
2023-01-19T09:06:20.007Z,1.37
2023-01-19T09:09:50.314Z,1.40
2023-01-19T09:13:19.726Z,1.47
2023-01-19T09:16:50.120Z,1.60
2023-01-19T09:20:30.216Z,1.68
2023-01-19T09:34:43.577Z,1.72
2023-01-19T09:41:43.258Z,1.85
2023-01-19T09:52:38.154Z,2.01
2023-01-19T10:00:07.484Z,1.97
2023-01-19T10:03:30.578Z,1.98
2023-01-19T10:07:03.423Z,2.01
2023-01-19T10:11:06.940Z,2.02
2023-01-19T10:36:20.966Z,2.37
2023-01-19T10:39:38.658Z,2.39
2023-01-19T10:47:31.538Z,2.46
2023-01-19T10:55:00.563Z,2.58
2023-01-19T11:01:59.322Z,2.71
2023-01-19T11:05:31.512Z,2.77
2023-01-19T11:43:48.924Z,3.94
2023-01-19T11:47:20.641Z,3.86
2023-01-19T11:51:08.479Z,3.90
2023-01-19T11:54:37.049Z,3.82
2023-01-19T12:36:43.022Z,2.47
2023-01-19T12:43:32.503Z,2.41
2023-01-19T12:46:45.264Z,2.34
2023-01-19T12:53:54.465Z,2.12
2023-01-19T12:57:06.010Z,2.06
2023-01-19T13:04:45.892Z,1.90
2023-01-19T13:22:57.109Z,1.81
2023-01-19T13:26:36.273Z,1.82
2023-01-19T13:30:08.627Z,1.82
2023-01-19T13:41:22.595Z,1.71
2023-01-19T13:45:00.329Z,1.65
2023-01-19T13:48:30.674Z,1.65
2023-01-19T13:51:52.414Z,1.64
2023-01-19T13:55:10.801Z,1.64
2023-01-19T13:58:40.467Z,1.65
2023-01-19T14:02:08.254Z,1.68
2023-01-19T14:05:41.394Z,1.58
2023-01-19T14:09:11.690Z,1.44
2023-01-19T14:12:58.546Z,1.31
2023-01-19T14:54:33.517Z,0.28
2023-01-19T14:57:59.220Z,0.11
2023-01-19T15:00:38.607Z,0.09
2023-01-19T15:03:44.874Z,0.06
2023-01-19T15:07:09.716Z,-0.10
2023-01-19T15:10:22.560Z,-0.31
2023-01-19T15:17:12.524Z,-0.55
2023-01-19T15:20:41.746Z,-0.68
2023-01-19T15:24:06.711Z,-0.87
2023-01-19T15:37:20.965Z,-1.36
2023-01-19T15:42:53.875Z,-1.47
2023-01-19T15:45:50.537Z,-1.49
2023-01-19T15:48:29.163Z,-1.50
2023-01-19T15:50:58.366Z,-1.52
2023-01-19T15:53:28.526Z,-1.53
2023-01-19T15:55:57.276Z,-1.52
2023-01-19T16:02:18.591Z,-1.51
2023-01-19T16:04:50.673Z,-1.54
2023-01-19T16:07:20.073Z,-1.58
2023-01-19T16:09:50.452Z,-1.62
2023-01-19T16:12:19.435Z,-1.65
2023-01-19T16:14:49.116Z,-1.69
2023-01-19T16:17:17.797Z,-1.73
2023-01-19T16:19:46.785Z,-1.77
2023-01-19T16:22:16.715Z,-1.82
2023-01-19T16:24:45.457Z,-1.85
2023-01-19T16:27:15.124Z,-1.90
2023-01-19T16:29:44.082Z,-1.97
2023-01-19T16:32:13.357Z,-2.00
2023-01-19T16:34:42.408Z,-2.04
2023-01-19T16:37:12.120Z,-2.07
2023-01-19T16:39:44.061Z,-2.11
2023-01-19T16:42:15.710Z,-2.14
2023-01-19T16:44:45.558Z,-2.16
2023-01-19T16:47:14.341Z,-2.18
2023-01-19T16:49:43.357Z,-2.20
2023-01-19T16:52:12.557Z,-2.26
2023-01-19T16:54:44.576Z,-2.32
2023-01-19T16:57:13.822Z,-2.38
2023-01-19T16:59:45.482Z,-2.44
2023-01-19T17:02:17.699Z,-2.47
2023-01-19T17:04:49.616Z,-2.49
2023-01-19T17:07:19.858Z,-2.49
2023-01-19T17:09:50.038Z,-2.48
2023-01-19T17:12:19.291Z,-2.47
2023-01-19T17:18:47.847Z,-2.46
2023-01-19T17:21:20.535Z,-2.48
2023-01-19T17:24:13.570Z,-2.48
2023-01-19T17:27:36.604Z,-2.48
2023-01-19T17:30:53.187Z,-2.50
2023-01-19T17:33:28.189Z,-2.49
2023-01-19T17:36:04.275Z,-2.50
2023-01-19T17:38:34.205Z,-2.50
2023-01-19T17:41:09.222Z,-2.51
2023-01-19T17:43:40.201Z,-2.55
2023-01-19T17:46:15.815Z,-2.60
2023-01-19T17:48:46.404Z,-2.62
2023-01-19T17:51:23.543Z,-2.63
2023-01-19T17:53:55.844Z,-2.59
2023-01-19T17:56:31.059Z,-2.53
2023-01-19T17:59:02.377Z,-2.54
2023-01-19T18:01:34.917Z,-2.55
2023-01-19T18:04:05.630Z,-2.53
2023-01-19T18:06:39.889Z,-2.51
2023-01-19T18:09:10.510Z,-2.50
2023-01-19T18:11:40.197Z,-2.49
2023-01-19T18:14:11.453Z,-2.57
2023-01-19T18:16:42.256Z,-2.73
2023-01-19T18:19:14.616Z,-2.88
2023-01-19T18:21:44.779Z,-2.96
2023-01-19T18:24:14.217Z,-2.97
2023-01-19T18:26:44.195Z,-2.93
2023-01-19T18:29:16.456Z,-2.92
2023-01-19T18:31:47.459Z,-2.97
2023-01-19T18:34:22.080Z,-3.04
2023-01-19T18:36:51.866Z,-3.09
2023-01-19T18:39:21.515Z,-3.10
2023-01-19T18:41:54.266Z,-3.12
2023-01-19T18:44:24.696Z,-3.16
2023-01-19T18:46:58.082Z,-3.22
2023-01-19T18:49:33.216Z,-3.28
2023-01-19T18:52:05.095Z,-3.32
2023-01-19T18:54:36.087Z,-3.33
2023-01-19T18:57:06.655Z,-3.32
2023-01-19T19:00:00.763Z,-3.33
2023-01-19T19:02:32.246Z,-3.37
2023-01-19T19:05:06.514Z,-3.39
2023-01-19T19:07:38.669Z,-3.35
2023-01-19T19:10:10.525Z,-3.31
2023-01-19T19:12:41.447Z,-3.31
2023-01-19T19:15:14.167Z,-3.35
2023-01-19T19:17:46.141Z,-3.49
2023-01-19T19:20:18.050Z,-3.62
2023-01-19T19:22:49.398Z,-3.69
2023-01-19T19:25:20.656Z,-3.77
2023-01-19T19:27:53.343Z,-3.83
2023-01-19T19:30:25.498Z,-3.82
2023-01-19T19:32:57.347Z,-3.81
2023-01-19T19:35:31.472Z,-3.91
2023-01-19T19:38:04.287Z,-4.00
2023-01-19T19:40:36.328Z,-4.03
2023-01-19T19:43:07.968Z,-4.05
2023-01-19T19:45:39.498Z,-4.07
2023-01-19T19:48:14.768Z,-4.10
2023-01-19T19:50:45.168Z,-4.15
2023-01-19T19:53:16.648Z,-4.17
2023-01-19T19:56:02.608Z,-4.18
2023-01-19T19:59:01.727Z,-4.27
2023-01-19T20:01:35.328Z,-4.36
2023-01-19T20:04:10.380Z,-4.42
2023-01-19T20:06:45.498Z,-4.46
2023-01-19T20:09:17.599Z,-4.46
2023-01-19T20:11:49.517Z,-4.48
2023-01-19T20:14:25.222Z,-4.51
2023-01-19T20:16:56.917Z,-4.59
2023-01-19T20:19:27.595Z,-4.64
2023-01-19T20:21:59.312Z,-4.69
2023-01-19T20:24:30.347Z,-4.75
2023-01-19T20:27:05.301Z,-4.78
2023-01-19T20:29:35.823Z,-4.78
2023-01-19T20:32:08.499Z,-4.82
2023-01-19T20:34:40.648Z,-4.86
2023-01-19T20:37:12.408Z,-4.90
2023-01-19T20:39:44.013Z,-4.95
2023-01-19T20:42:17.364Z,-4.97
2023-01-19T20:44:47.168Z,-4.99
2023-01-19T20:47:19.097Z,-5.01
2023-01-19T20:49:49.170Z,-5.04
2023-01-19T20:52:22.336Z,-5.07
2023-01-19T20:54:53.261Z,-5.11
2023-01-19T20:57:26.438Z,-5.18
2023-01-19T20:59:57.232Z,-5.24
2023-01-19T21:02:28.661Z,-5.26
2023-01-19T21:04:58.688Z,-5.30
2023-01-19T21:07:28.282Z,-5.35
2023-01-19T21:09:58.016Z,-5.45
2023-01-19T21:12:30.815Z,-5.52
2023-01-19T21:15:04.228Z,-5.59
2023-01-19T21:17:33.821Z,-5.62
2023-01-19T21:20:03.864Z,-5.61
2023-01-19T21:22:34.196Z,-5.61
2023-01-19T21:25:03.662Z,-5.58
2023-01-19T21:27:32.509Z,-5.54
2023-01-19T21:30:03.194Z,-5.55
2023-01-19T21:32:33.861Z,-5.63
2023-01-19T21:35:04.101Z,-5.73
2023-01-19T21:37:32.813Z,-5.80
2023-01-19T21:40:02.796Z,-5.85
2023-01-19T21:42:32.183Z,-5.90
2023-01-19T21:45:01.308Z,-5.91
2023-01-19T21:47:30.216Z,-5.92
2023-01-19T21:49:59.473Z,-5.92
2023-01-19T21:52:28.135Z,-5.92
2023-01-19T21:54:58.084Z,-5.95
2023-01-19T21:57:26.805Z,-5.97
2023-01-19T21:59:57.876Z,-5.97
2023-01-19T22:02:37.879Z,-5.94
2023-01-19T22:05:08.113Z,-5.90
2023-01-19T22:07:37.764Z,-5.91
2023-01-19T22:10:07.853Z,-5.85
2023-01-19T22:12:39.834Z,-5.83
2023-01-19T22:15:09.674Z,-5.83
2023-01-19T22:17:38.894Z,-5.89
2023-01-19T22:20:10.546Z,-5.95
2023-01-19T22:22:39.416Z,-5.98
2023-01-19T22:25:10.590Z,-5.99
2023-01-19T22:27:40.004Z,-5.96
2023-01-19T22:30:09.689Z,-5.95
2023-01-19T22:32:38.855Z,-5.95
2023-01-19T22:35:09.216Z,-5.94
2023-01-19T22:37:38.609Z,-5.91
2023-01-19T22:40:09.166Z,-5.88
2023-01-19T22:42:38.295Z,-5.91
2023-01-19T22:45:07.659Z,-5.99
2023-01-19T22:47:36.568Z,-6.05
2023-01-19T22:50:05.994Z,-6.05
2023-01-19T22:52:35.199Z,-6.01
2023-01-19T22:55:03.855Z,-5.93
2023-01-19T22:57:36.854Z,-5.87
2023-01-19T23:00:31.926Z,-5.81
2023-01-19T23:03:00.340Z,-5.77
2023-01-19T23:05:29.763Z,-5.80
2023-01-19T23:07:58.294Z,-5.83
2023-01-19T23:10:26.967Z,-5.85
2023-01-19T23:12:55.468Z,-5.87
2023-01-19T23:15:24.151Z,-5.87
2023-01-19T23:17:57.196Z,-5.87
2023-01-19T23:20:29.703Z,-5.86
2023-01-19T23:22:59.079Z,-5.84
2023-01-19T23:25:28.347Z,-5.79
2023-01-19T23:27:57.097Z,-5.72
2023-01-19T23:30:25.626Z,-5.62
2023-01-19T23:32:54.257Z,-5.60
2023-01-19T23:35:25.626Z,-5.64
2023-01-19T23:37:55.928Z,-5.69
2023-01-19T23:40:24.826Z,-5.71
2023-01-19T23:42:59.369Z,-5.70
2023-01-19T23:45:28.458Z,-5.70
2023-01-19T23:47:57.784Z,-5.69
2023-01-19T23:50:26.656Z,-5.65
2023-01-19T23:52:56.033Z,-5.60
2023-01-19T23:55:24.659Z,-5.51
2023-01-19T23:57:55.120Z,-5.48
